Time;durP1;ratioP1;P1;durP2;ratioP2;P2;SDS_P1;SDS_P2;PMS_P1;PMS_P2;Temp;Humidity;BMP_temperature;BMP_pressure;BME280_temperature;BME280_humidity;BME280_pressure;Samples;Min_cycle;Max_cycle;Signal;HPM_P1;HPM_P2
2023/01/17 00:00:11;;;;;;;7.90;6.18;;;;;;;6.69;65.20;97517.97;688119;28;1041;-81
2023/01/17 00:00:31;;;;;;;7.05;5.75;;;;;;;6.76;64.65;97508.41;688108;28;1894;-81
2023/01/17 00:00:52;;;;;;;6.22;5.47;;;;;;;6.72;64.92;97510.19;688024;28;1176;-82
2023/01/17 00:01:35;;;;;;;6.10;5.50;;;;;;;6.78;65.08;97522.22;688263;28;993;-82
2023/01/17 00:01:56;;;;;;;6.20;5.60;;;;;;;6.74;64.79;97510.16;687744;28;1365;-82
2023/01/17 00:02:17;;;;;;;5.90;5.30;;;;;;;6.70;64.91;97509.31;688228;28;1216;-81
2023/01/17 00:02:38;;;;;;;6.40;5.80;;;;;;;6.86;64.87;97515.22;688174;28;1255;-82
2023/01/17 00:02:58;;;;;;;6.43;5.83;;;;;;;6.85;64.48;97504.00;688047;28;1104;-82
2023/01/17 00:03:19;;;;;;;6.65;5.95;;;;;;;6.83;65.13;97510.06;685453;28;1073;-82
2023/01/17 00:09:51;;;;;;;7.30;5.62;;;;;;;6.86;64.19;97502.25;690744;28;1353;-82
2023/01/17 00:10:24;;;;;;;6.90;5.85;;;;;;;6.77;64.46;97515.31;692468;28;1137;-81
2023/01/17 00:10:45;;;;;;;7.25;5.70;;;;;;;6.84;64.48;97506.63;688086;28;1093;-81
2023/01/17 00:11:05;;;;;;;7.22;5.68;;;;;;;6.73;64.65;97501.53;685410;28;1108;-82
2023/01/17 00:11:26;;;;;;;7.15;5.70;;;;;;;6.79;64.18;97514.44;688237;28;758;-82
2023/01/17 00:11:46;;;;;;;6.00;5.40;;;;;;;6.82;64.87;97510.97;688278;28;1018;-82
2023/01/17 00:12:07;;;;;;;6.10;5.50;;;;;;;6.82;64.28;97524.75;688253;28;1091;-82
2023/01/17 00:12:30;;;;;;;6.00;5.50;;;;;;;6.96;64.35;97521.19;685429;28;1427;-81
2023/01/17 00:12:59;;;;;;;5.93;5.43;;;;;;;6.95;64.09;97514.28;690819;28;1365;-81
2023/01/17 00:13:20;;;;;;;5.80;5.30;;;;;;;6.95;63.96;97506.50;690763;28;1129;-82
2023/01/17 00:13:40;;;;;;;5.80;5.30;;;;;;;6.98;64.04;97524.63;685466;28;795;-82
2023/01/17 00:14:01;;;;;;;6.00;5.40;;;;;;;6.94;64.00;97512.56;685512;28;1109;-82
2023/01/17 00:14:21;;;;;;;6.18;5.57;;;;;;;6.85;64.13;97511.78;690946;28;1033;-81
2023/01/17 00:14:42;;;;;;;6.10;5.50;;;;;;;6.89;64.32;97522.13;685012;28;1268;-82
2023/01/17 00:15:03;;;;;;;6.15;5.60;;;;;;;6.98;63.99;97524.63;685417;28;1313;-82
2023/01/17 00:15:25;;;;;;;6.03;5.45;;;;;;;6.91;63.72;97512.59;690831;28;1279;-81
2023/01/17 00:15:46;;;;;;;7.10;5.30;;;;;;;6.93;63.71;97510.88;690888;28;1146;-81
2023/01/17 00:16:07;;;;;;;7.83;5.33;;;;;;;6.93;64.13;97516.88;690700;28;1194;-82
2023/01/17 00:16:27;;;;;;;8.10;5.60;;;;;;;6.90;64.02;97511.75;688251;28;760;-81
2023/01/17 00:16:48;;;;;;;7.72;5.90;;;;;;;6.83;64.30;97523.88;687993;28;1037;-82
2023/01/17 00:17:08;;;;;;;7.23;5.83;;;;;;;6.81;64.17;97512.69;690663;28;1092;-82
2023/01/17 00:17:29;;;;;;;6.65;5.68;;;;;;;6.72;64.43;97512.78;691129;28;1268;-82
2023/01/17 00:17:50;;;;;;;6.70;5.65;;;;;;;6.71;64.33;97529.19;690858;28;1195;-82
2023/01/17 00:18:11;;;;;;;6.72;5.90;;;;;;;6.74;64.29;97529.16;688134;28;1317;-82
2023/01/17 00:18:32;;;;;;;7.20;6.10;;;;;;;6.72;64.43;97515.34;685543;28;1413;-82
2023/01/17 00:26:18;;;;;;;7.00;6.30;;;;;;;6.50;64.73;97532.78;691277;28;1029;-82
2023/01/17 01:33:35;;;;;;;10.73;8.32;;;;;;;5.82;66.67;97612.53;687972;28;1322;-80
2023/01/17 01:34:03;;;;;;;11.13;8.38;;;;;;;5.71;67.17;97632.44;685863;28;1183;-81
2023/01/17 01:34:24;;;;;;;9.43;7.97;;;;;;;5.67;67.24;97616.06;685858;28;1132;-81
2023/01/17 01:34:44;;;;;;;9.23;7.50;;;;;;;5.54;67.29;97614.38;685876;28;1232;-81
2023/01/17 01:35:05;;;;;;;8.60;7.03;;;;;;;5.58;67.47;97623.84;685644;28;1109;-81
2023/01/17 01:35:26;;;;;;;8.18;7.00;;;;;;;5.78;67.20;97625.50;687171;28;847;-80
2023/01/17 01:35:52;;;;;;;8.75;7.00;;;;;;;5.80;67.21;97619.47;684431;28;1397;-80
2023/01/17 01:36:13;;;;;;;9.00;7.20;;;;;;;5.82;67.33;97612.53;684235;28;970;-80
2023/01/17 01:36:41;;;;;;;9.67;7.40;;;;;;;5.80;66.97;97614.28;684346;28;849;-80
2023/01/17 01:37:02;;;;;;;8.68;7.10;;;;;;;5.84;67.23;97615.13;687937;28;1021;-80
2023/01/17 01:37:23;;;;;;;8.35;7.10;;;;;;;5.82;67.25;97619.47;688601;28;886;-80
2023/01/17 01:37:43;;;;;;;7.90;6.70;;;;;;;5.88;67.36;97622.88;685828;28;1142;-80
2023/01/17 01:38:04;;;;;;;7.60;6.68;;;;;;;5.78;67.74;97625.50;688406;28;1192;-79
2023/01/17 01:38:24;;;;;;;7.68;6.68;;;;;;;5.92;67.33;97648.75;688642;28;835;-80
2023/01/17 01:38:45;;;;;;;7.33;6.53;;;;;;;5.92;67.01;97628.91;685749;28;1115;-81
2023/01/17 01:39:05;;;;;;;7.40;6.20;;;;;;;5.85;67.09;97627.19;686435;28;1021;-80
2023/01/17 01:39:29;;;;;;;7.00;6.10;;;;;;;5.80;66.98;97623.75;691250;28;1288;-81
2023/01/17 01:39:50;;;;;;;7.53;6.70;;;;;;;5.89;67.04;97631.47;691923;28;958;-81
2023/01/17 01:40:11;;;;;;;7.70;6.90;;;;;;;5.87;67.12;97641.00;691215;28;1023;-80
2023/01/17 01:40:31;;;;;;;7.78;6.97;;;;;;;5.84;67.35;97631.50;688273;28;1906;-80
2023/01/17 01:40:54;;;;;;;7.13;6.43;;;;;;;5.87;67.30;97630.63;685687;28;1135;-80
2023/01/17 01:41:15;;;;;;;7.40;6.70;;;;;;;5.91;67.52;97642.72;688441;28;1122;-81
2023/01/17 01:41:36;;;;;;;7.20;6.50;;;;;;;5.95;67.10;97638.38;688590;28;792;-80
2023/01/17 01:41:56;;;;;;;7.07;6.37;;;;;;;5.98;67.34;97646.13;688288;28;944;-80
2023/01/17 01:42:31;;;;;;;7.10;6.10;;;;;;;5.97;66.98;97634.94;691300;28;1253;-80
2023/01/17 01:42:57;;;;;;;6.97;5.85;;;;;;;5.98;67.11;97647.00;687928;28;1122;-80
2023/01/17 01:43:20;;;;;;;7.43;6.20;;;;;;;5.97;67.05;97641.81;685932;28;1104;-81
2023/01/17 01:43:49;;;;;;;8.75;6.38;;;;;;;5.87;66.91;97641.00;691106;28;1138;-80
2023/01/17 01:44:43;;;;;;;8.30;6.40;;;;;;;5.95;67.31;97646.16;691094;28;1148;-81
2023/01/17 01:45:19;;;;;;;8.02;6.35;;;;;;;5.89;67.15;97632.34;690990;28;1320;-80
2023/01/17 01:45:45;;;;;;;7.15;6.18;;;;;;;6.00;67.30;97657.34;688423;28;906;-80
2023/01/17 01:46:17;;;;;;;6.90;5.93;;;;;;;6.10;66.93;97655.56;683090;28;921;-80
2023/01/17 01:46:40;;;;;;;6.93;6.05;;;;;;;6.14;66.90;97646.94;683111;28;867;-81
2023/01/17 01:47:01;;;;;;;7.45;6.25;;;;;;;6.11;66.76;97646.94;685665;28;1026;-80
2023/01/17 01:47:29;;;;;;;7.40;6.43;;;;;;;6.07;66.71;97655.59;686075;28;930;-80
2023/01/17 01:47:58;;;;;;;8.60;6.82;;;;;;;6.08;66.53;97655.56;688415;28;1121;-80
2023/01/17 01:48:31;;;;;;;8.45;6.90;;;;;;;6.14;66.56;97652.97;688352;28;1215;-80
2023/01/17 01:48:57;;;;;;;8.07;6.38;;;;;;;6.06;66.44;97644.38;691068;28;1127;-81
2023/01/17 01:49:24;;;;;;;8.05;6.20;;;;;;;6.07;66.41;97647.84;691049;28;1000;-81
2023/01/17 01:49:47;;;;;;;7.80;6.57;;;;;;;6.15;66.56;97653.84;688332;28;1123;-80
2023/01/17 01:50:11;;;;;;;8.35;6.70;;;;;;;6.18;66.88;97651.22;691058;28;933;-80
2023/01/17 01:50:34;;;;;;;12.05;6.90;;;;;;;6.13;66.44;97651.25;688486;28;887;-80
2023/01/17 01:50:55;;;;;;;11.65;6.57;;;;;;;6.09;66.18;97649.56;685686;28;1245;-80
2023/01/17 01:51:20;;;;;;;12.10;6.70;;;;;;;6.06;66.40;97662.50;685816;28;1131;-80
2023/01/17 01:51:45;;;;;;;8.85;6.78;;;;;;;6.01;66.61;97651.28;688395;28;905;-80
2023/01/17 01:52:07;;;;;;;7.85;6.38;;;;;;;6.02;66.40;97650.44;690931;28;1375;-80
2023/01/17 01:52:30;;;;;;;7.20;6.00;;;;;;;6.05;66.68;97649.53;690722;28;1148;-80
2023/01/17 01:52:57;;;;;;;7.45;6.30;;;;;;;6.04;66.93;97659.06;688250;28;1531;-80
2023/01/17 01:53:19;;;;;;;7.28;6.47;;;;;;;6.05;66.79;97659.91;688561;28;1001;-80
2023/01/17 01:53:46;;;;;;;8.02;6.82;;;;;;;6.11;67.02;97670.25;685797;28;1263;-80
2023/01/17 01:54:13;;;;;;;8.38;6.70;;;;;;;6.09;66.61;97651.28;685716;28;1264;-80
2023/01/17 01:54:41;;;;;;;8.32;6.70;;;;;;;6.12;66.74;97667.66;686047;28;1263;-80
2023/01/17 01:55:07;;;;;;;8.10;6.70;;;;;;;6.10;66.18;97659.03;685073;28;2105;-80
2023/01/17 01:55:38;;;;;;;7.72;6.53;;;;;;;6.03;66.53;97655.59;683093;28;945;-80
2023/01/17 01:55:59;;;;;;;7.68;6.35;;;;;;;5.97;66.77;97657.34;685613;28;1092;-81
2023/01/17 01:56:22;;;;;;;7.05;6.00;;;;;;;6.02;66.84;97656.47;683189;28;1162;-80
2023/01/17 01:56:45;;;;;;;6.30;5.43;;;;;;;6.01;66.93;97654.75;685491;28;1135;-80
2023/01/17 01:57:10;;;;;;;6.78;5.40;;;;;;;6.07;66.04;97660.78;688312;28;1202;-80
2023/01/17 01:57:38;;;;;;;7.82;5.80;;;;;;;6.02;66.50;97658.22;688473;28;1259;-80
2023/01/17 01:58:07;;;;;;;7.32;5.72;;;;;;;6.03;66.82;97663.34;685521;28;1103;-81
2023/01/17 01:58:33;;;;;;;6.57;5.90;;;;;;;6.06;66.44;97666.81;685786;28;1127;-80
2023/01/17 01:58:55;;;;;;;7.30;6.38;;;;;;;6.00;66.80;97665.97;688301;28;2078;-80
2023/01/17 01:59:18;;;;;;;6.82;6.10;;;;;;;6.06;66.48;97659.91;686385;28;1001;-80
2023/01/17 01:59:45;;;;;;;6.90;6.00;;;;;;;6.03;66.75;97663.34;688499;28;867;-81
2023/01/17 02:00:15;;;;;;;6.95;5.90;;;;;;;6.03;66.46;97668.53;688397;28;1137;-80
2023/01/17 02:00:37;;;;;;;6.80;5.78;;;;;;;6.06;66.46;97669.41;688619;28;1918;-81
2023/01/17 02:00:58;;;;;;;6.60;5.90;;;;;;;6.01;66.70;97654.75;688230;28;1080;-81
2023/01/17 02:01:18;;;;;;;6.80;6.10;;;;;;;6.06;66.70;97672.00;685732;28;1237;-80
2023/01/17 02:01:39;;;;;;;7.10;6.40;;;;;;;6.03;66.54;97665.94;691137;28;1472;-80
2023/01/17 02:02:00;;;;;;;7.18;6.47;;;;;;;5.96;66.65;97666.84;690997;28;1210;-80
2023/01/17 02:02:20;;;;;;;7.10;6.40;;;;;;;5.91;67.00;97666.00;691205;28;1131;-80
2023/01/17 02:02:54;;;;;;;7.00;6.27;;;;;;;5.92;67.06;97680.66;691099;28;763;-80
2023/01/17 02:03:28;;;;;;;6.97;6.28;;;;;;;5.96;66.95;97677.19;693785;28;965;-80
2023/01/17 02:03:50;;;;;;;7.13;6.10;;;;;;;6.00;67.20;97676.31;691047;28;1322;-80
2023/01/17 02:04:11;;;;;;;7.38;5.85;;;;;;;5.97;66.53;97672.88;688395;28;1147;-80
2023/01/17 02:04:32;;;;;;;7.43;5.95;;;;;;;6.05;66.84;97683.19;691132;28;1214;-80
2023/01/17 02:04:52;;;;;;;8.05;6.07;;;;;;;5.97;67.14;97667.72;688413;28;1213;-81
2023/01/17 02:05:16;;;;;;;8.23;6.40;;;;;;;6.00;66.85;97671.16;691101;28;1021;-80
2023/01/17 02:05:37;;;;;;;8.32;6.35;;;;;;;5.97;67.00;97678.06;688478;28;1209;-80
2023/01/17 02:06:06;;;;;;;7.10;5.82;;;;;;;6.04;66.84;97679.75;688284;28;1103;-81
2023/01/17 02:06:32;;;;;;;6.13;5.53;;;;;;;6.02;66.84;97678.91;683012;28;2148;-81
2023/01/17 02:07:02;;;;;;;6.43;5.70;;;;;;;6.03;66.72;97694.41;688104;28;1172;-81
2023/01/17 02:07:30;;;;;;;7.30;6.00;;;;;;;5.99;67.00;97686.66;685732;28;1349;-80
2023/01/17 02:07:55;;;;;;;7.00;6.00;;;;;;;5.72;67.13;97683.31;685640;28;1249;-81
2023/01/17 02:08:18;;;;;;;6.25;5.63;;;;;;;5.86;67.53;97685.84;691101;28;1237;-80
2023/01/17 02:08:40;;;;;;;5.70;5.20;;;;;;;5.85;67.47;97690.19;688479;28;850;-80
2023/01/17 02:09:04;;;;;;;5.50;4.90;;;;;;;5.85;67.13;97689.31;691050;28;1141;-80
2023/01/17 02:09:26;;;;;;;5.50;4.80;;;;;;;5.81;67.38;97682.41;690973;28;1364;-80
2023/01/17 02:09:47;;;;;;;6.00;4.82;;;;;;;5.84;67.51;97672.06;696541;28;1035;-80
2023/01/17 02:10:08;;;;;;;5.67;5.07;;;;;;;5.91;67.43;97681.53;693669;28;1047;-80
2023/01/17 02:10:37;;;;;;;5.93;5.32;;;;;;;5.98;67.58;97691.00;693940;28;813;-80
2023/01/17 02:10:58;;;;;;;6.10;5.47;;;;;;;5.89;67.37;97693.59;688189;28;1171;-81
2023/01/17 02:11:20;;;;;;;6.20;5.20;;;;;;;6.01;67.33;97705.63;685633;28;1033;-80
2023/01/17 02:11:42;;;;;;;5.45;4.90;;;;;;;5.91;67.15;97694.47;685786;28;792;-80
2023/01/17 02:12:04;;;;;;;5.43;4.78;;;;;;;5.86;67.29;97691.03;685445;28;1279;-80
2023/01/17 02:12:24;;;;;;;5.57;4.55;;;;;;;5.93;67.33;97679.78;691142;28;1405;-81
2023/01/17 02:12:46;;;;;;;5.35;4.57;;;;;;;5.92;67.26;97680.66;688344;28;1143;-80
2023/01/17 02:13:08;;;;;;;5.43;4.70;;;;;;;5.98;66.92;97695.31;688209;28;1222;-80
2023/01/17 02:13:30;;;;;;;4.85;4.35;;;;;;;5.94;66.94;97697.03;685782;28;893;-80
2023/01/17 02:13:50;;;;;;;5.07;4.57;;;;;;;5.98;66.92;97682.38;685815;28;1136;-80
2023/01/17 02:14:17;;;;;;;5.00;4.50;;;;;;;6.08;67.08;97698.72;685745;28;1476;-80
2023/01/17 02:14:37;;;;;;;6.40;4.60;;;;;;;6.10;67.06;97694.41;687216;28;842;-80
2023/01/17 02:14:59;;;;;;;7.13;4.63;;;;;;;6.03;66.80;97699.59;686997;28;1054;-80
2023/01/17 02:15:25;;;;;;;6.80;4.70;;;;;;;5.94;66.90;97694.44;687088;28;1351;-81
2023/01/17 02:16:07;;;;;;;5.65;4.80;;;;;;;6.01;66.70;97710.81;685790;28;1031;-80
2023/01/17 02:16:45;;;;;;;4.93;4.50;;;;;;;6.10;67.05;97718.56;689799;28;815;-80
2023/01/17 02:17:43;;;;;;;5.00;4.50;;;;;;;6.13;66.61;97707.31;688772;28;1131;-81
2023/01/17 02:18:33;;;;;;;5.43;4.10;;;;;;;6.05;67.01;97701.31;693580;28;1082;-81
2023/01/17 02:18:54;;;;;;;5.10;3.80;;;;;;;6.15;66.58;97713.38;691771;28;1099;-80
2023/01/17 02:19:23;;;;;;;5.00;4.20;;;;;;;6.21;66.49;97722.84;691115;28;958;-81
2023/01/17 02:20:08;;;;;;;5.05;4.22;;;;;;;6.23;66.51;97710.75;688266;28;1110;-80
2023/01/17 02:20:41;;;;;;;3.85;3.55;;;;;;;6.12;66.35;97716.84;690953;28;1926;-80
2023/01/17 02:21:17;;;;;;;3.80;3.50;;;;;;;6.09;66.72;97724.63;692840;28;1076;-80
2023/01/17 02:21:49;;;;;;;3.80;3.50;;;;;;;5.99;66.63;97723.78;693757;28;1427;-81
2023/01/17 02:22:28;;;;;;;4.05;3.50;;;;;;;5.92;67.14;97726.38;693708;28;1077;-80
2023/01/17 02:23:23;;;;;;;4.05;3.55;;;;;;;5.97;66.88;97733.28;690973;28;1199;-81
2023/01/17 02:24:02;;;;;;;4.07;3.40;;;;;;;6.15;66.68;97728.91;688178;28;1217;-81
2023/01/17 02:25:05;;;;;;;4.13;3.30;;;;;;;6.13;66.46;97735.81;685714;28;1311;-80
2023/01/17 02:26:14;;;;;;;3.72;3.35;;;;;;;6.07;66.66;97743.63;685851;28;910;-81
2023/01/17 02:26:58;;;;;;;3.30;3.10;;;;;;;6.03;66.80;97741.00;688186;28;1152;-81
2023/01/17 02:27:38;;;;;;;3.28;3.00;;;;;;;6.00;66.33;97722.91;684095;28;1125;-81
2023/01/17 02:28:17;;;;;;;3.13;2.83;;;;;;;6.07;66.41;97741.03;680179;29;1220;-81
2023/01/17 02:29:05;;;;;;;3.65;3.35;;;;;;;6.06;66.74;97754.84;680251;29;847;-81
2023/01/17 02:29:40;;;;;;;3.65;3.35;;;;;;;6.01;66.48;97731.53;677818;29;816;-81
2023/01/17 02:30:32;;;;;;;3.42;3.10;;;;;;;6.11;66.22;97743.59;682806;29;1073;-81
2023/01/17 02:30:59;;;;;;;3.50;3.20;;;;;;;6.09;66.79;97740.16;685396;28;1151;-80
2023/01/17 02:31:30;;;;;;;3.65;3.33;;;;;;;5.98;66.17;97736.72;685524;28;1229;-81
2023/01/17 02:32:05;;;;;;;4.25;3.30;;;;;;;6.03;66.66;97743.59;686555;28;1165;-80
2023/01/17 02:32:31;;;;;;;3.47;3.00;;;;;;;6.05;66.27;97747.91;688563;28;1086;-80
2023/01/17 02:33:16;;;;;;;3.10;2.80;;;;;;;6.05;65.99;97738.44;694026;28;1068;-80
2023/01/17 02:33:46;;;;;;;3.95;2.92;;;;;;;6.03;66.43;97745.34;689065;28;946;-80
2023/01/17 02:34:19;;;;;;;3.53;3.00;;;;;;;6.06;66.43;97749.66;685472;28;1183;-80
2023/01/17 02:34:39;;;;;;;3.15;2.95;;;;;;;6.10;65.94;97756.53;685648;28;893;-81
2023/01/17 02:35:14;;;;;;;3.10;2.90;;;;;;;6.16;66.14;97759.97;685527;28;1367;-81
2023/01/17 02:35:53;;;;;;;3.35;3.10;;;;;;;6.10;66.08;97735.81;691093;28;968;-81
2023/01/17 02:36:23;;;;;;;3.05;2.85;;;;;;;5.98;66.02;97734.13;688199;28;1421;-80
2023/01/17 02:37:13;;;;;;;3.00;2.80;;;;;;;6.01;66.31;97739.28;687880;28;1371;-80
2023/01/17 02:37:47;;;;;;;3.63;2.80;;;;;;;5.99;66.34;97761.72;682125;28;1260;-80
2023/01/17 02:38:42;;;;;;;4.70;3.40;;;;;;;5.94;66.04;97751.38;687188;28;1090;-81
2023/01/17 02:39:18;;;;;;;4.07;3.08;;;;;;;5.88;66.63;97761.75;690450;28;1325;-81
2023/01/17 02:39:50;;;;;;;4.90;3.33;;;;;;;5.94;66.28;97740.19;693731;28;988;-80
2023/01/17 02:40:22;;;;;;;4.25;3.05;;;;;;;6.02;66.18;97747.06;696332;28;1101;-81
2023/01/17 02:40:54;;;;;;;5.13;3.30;;;;;;;6.00;66.04;97741.03;690890;28;1914;-80
2023/01/17 02:41:17;;;;;;;5.20;3.20;;;;;;;6.09;65.88;97749.63;690899;28;1074;-80
2023/01/17 02:41:42;;;;;;;5.35;3.05;;;;;;;6.00;65.82;97746.22;688333;28;1096;-81
2023/01/17 02:42:13;;;;;;;5.82;3.15;;;;;;;6.09;65.92;97749.63;682622;28;2155;-80
2023/01/17 02:42:39;;;;;;;5.53;3.60;;;;;;;6.09;65.98;97758.28;684258;28;1413;-81
2023/01/17 02:43:07;;;;;;;3.70;3.40;;;;;;;6.12;65.43;97749.63;685447;28;1085;-81
2023/01/17 02:43:28;;;;;;;3.05;2.83;;;;;;;6.15;65.56;97752.22;690953;28;1282;-80
2023/01/17 02:43:51;;;;;;;3.30;2.80;;;;;;;6.20;65.69;97742.69;690919;28;1140;-80
2023/01/17 02:44:17;;;;;;;3.22;2.80;;;;;;;6.19;65.29;97750.47;690661;28;1270;-80
2023/01/17 02:44:43;;;;;;;3.33;2.80;;;;;;;6.21;65.25;97765.16;688426;28;815;-81
2023/01/17 02:45:18;;;;;;;3.10;2.90;;;;;;;6.10;65.41;97741.00;685482;28;906;-81
2023/01/17 02:45:47;;;;;;;2.90;2.70;;;;;;;6.05;65.22;97747.91;687835;28;973;-80
2023/01/17 02:46:07;;;;;;;2.95;2.75;;;;;;;6.06;65.20;97741.91;687411;28;940;-80
2023/01/17 02:46:28;;;;;;;2.90;2.70;;;;;;;6.03;65.10;97735.84;685751;28;847;-81
2023/01/17 02:46:53;;;;;;;2.83;2.63;;;;;;;6.00;65.33;97734.97;688619;28;1006;-80
2023/01/17 02:47:26;;;;;;;2.75;2.55;;;;;;;6.07;65.43;97751.38;690936;28;1040;-81
2023/01/17 02:47:46;;;;;;;3.10;2.80;;;;;;;5.97;65.84;97754.00;688141;28;981;-80
2023/01/17 02:48:11;;;;;;;3.70;2.70;;;;;;;5.83;65.83;97743.66;685464;28;1204;-80
2023/01/17 02:48:35;;;;;;;4.38;2.60;;;;;;;5.92;65.56;97766.06;683360;28;1261;-80
2023/01/17 02:48:57;;;;;;;3.03;2.58;;;;;;;5.88;65.83;97752.28;685536;28;989;-81
2023/01/17 02:49:22;;;;;;;2.65;2.45;;;;;;;5.85;65.72;97752.28;688308;28;1037;-81
2023/01/17 02:49:43;;;;;;;3.10;2.60;;;;;;;5.81;65.89;97739.31;688238;28;1493;-80
2023/01/17 02:50:28;;;;;;;3.47;2.80;;;;;;;5.90;66.17;97754.88;685373;28;1007;-80
2023/01/17 02:50:58;;;;;;;3.00;2.70;;;;;;;5.78;65.96;97741.94;687253;28;1092;-80
2023/01/17 02:51:55;;;;;;;3.40;2.80;;;;;;;5.92;65.99;97757.44;682885;28;1223;-81
2023/01/17 02:52:48;;;;;;;4.80;2.75;;;;;;;5.87;65.83;97760.03;688379;28;812;-80
2023/01/17 02:53:16;;;;;;;3.90;3.50;;;;;;;5.91;66.30;97760.88;688800;28;1056;-81
2023/01/17 02:53:55;;;;;;;4.03;3.53;;;;;;;5.87;66.02;97765.19;693754;28;917;-80
2023/01/17 02:54:35;;;;;;;4.05;3.30;;;;;;;5.88;66.20;97766.91;690696;28;1133;-79
2023/01/17 02:55:27;;;;;;;4.40;3.58;;;;;;;5.87;66.20;97770.38;690824;28;1315;-80
2023/01/17 02:56:21;;;;;;;4.28;3.88;;;;;;;5.74;66.15;97764.34;690957;28;975;-80
2023/01/17 02:56:55;;;;;;;5.40;4.57;;;;;;;5.82;65.54;97788.50;690321;28;1399;-81
2023/01/17 02:57:40;;;;;;;6.45;4.70;;;;;;;5.84;65.48;97783.34;685456;28;1220;-80
2023/01/17 02:58:31;;;;;;;5.95;4.30;;;;;;;5.80;66.05;97791.94;688117;28;1019;-80
2023/01/17 02:59:12;;;;;;;8.18;4.72;;;;;;;5.71;65.70;97783.31;685468;28;1017;-80
2023/01/17 02:59:50;;;;;;;6.75;4.40;;;;;;;5.65;65.86;97775.56;688244;28;843;-80
2023/01/17 03:00:23;;;;;;;5.32;4.30;;;;;;;5.77;65.49;97795.41;688073;28;1215;-80
2023/01/17 03:01:02;;;;;;;4.85;3.90;;;;;;;5.77;65.21;97804.91;685525;28;2025;-80
2023/01/17 03:01:33;;;;;;;4.50;4.10;;;;;;;5.69;65.17;97792.81;688257;28;791;-80
2023/01/17 03:02:03;;;;;;;4.53;4.13;;;;;;;5.67;65.49;97807.50;690751;28;1424;-80
2023/01/17 03:02:35;;;;;;;4.50;4.10;;;;;;;5.48;65.34;97791.94;690983;28;866;-81
2023/01/17 03:03:17;;;;;;;4.00;3.70;;;;;;;5.36;65.47;97810.06;690903;28;1071;-81
2023/01/17 03:03:50;;;;;;;3.80;3.50;;;;;;;5.29;65.64;97810.91;690903;28;1233;-81
2023/01/17 03:04:19;;;;;;;3.90;3.60;;;;;;;5.11;66.09;97803.97;688156;28;1240;-81
2023/01/17 03:04:52;;;;;;;3.30;3.10;;;;;;;4.79;66.04;97797.88;688500;28;815;-81
2023/01/17 03:05:34;;;;;;;3.13;2.92;;;;;;;4.71;66.51;97799.56;685591;28;1237;-81
2023/01/17 03:06:01;;;;;;;3.30;3.00;;;;;;;4.78;66.28;97798.69;688888;28;1207;-81
2023/01/17 03:06:45;;;;;;;3.50;2.90;;;;;;;4.96;66.20;97825.47;688271;28;1211;-81
2023/01/17 03:07:15;;;;;;;3.88;3.20;;;;;;;4.73;66.18;97803.00;690879;28;1136;-81
2023/01/17 03:07:38;;;;;;;3.60;3.20;;;;;;;4.72;66.71;97801.28;685447;28;1191;-81
2023/01/17 03:08:00;;;;;;;3.45;3.20;;;;;;;4.68;66.57;97804.69;685357;28;1359;-82
2023/01/17 03:08:22;;;;;;;3.45;3.15;;;;;;;4.69;66.45;97832.25;685398;28;1117;-81
2023/01/17 03:08:45;;;;;;;3.58;3.28;;;;;;;4.77;66.61;97820.22;685613;28;1093;-81
2023/01/17 03:09:07;;;;;;;3.50;3.05;;;;;;;4.82;66.13;97812.50;688073;28;1130;-81
2023/01/17 03:09:30;;;;;;;3.92;2.97;;;;;;;4.75;66.41;97798.69;692608;28;1223;-81
2023/01/17 03:09:58;;;;;;;3.83;3.00;;;;;;;4.79;66.36;97809.06;693646;28;1155;-81
2023/01/17 03:10:20;;;;;;;3.38;2.90;;;;;;;4.81;65.90;97798.72;688292;28;1053;-81
2023/01/17 03:10:42;;;;;;;3.10;2.80;;;;;;;4.66;66.32;97807.25;688299;28;893;-81
2023/01/17 03:11:02;;;;;;;3.20;2.90;;;;;;;4.62;65.97;97816.75;690938;28;1067;-81
2023/01/17 03:11:23;;;;;;;3.10;2.80;;;;;;;4.56;66.50;97821.00;691133;28;1193;-81
2023/01/17 03:11:44;;;;;;;2.72;2.53;;;;;;;4.44;66.85;97814.06;690943;28;1163;-81
2023/01/17 03:12:05;;;;;;;2.90;2.50;;;;;;;4.46;66.88;97825.25;688236;28;1158;-81
2023/01/17 03:12:31;;;;;;;2.70;2.50;;;;;;;4.46;66.78;97820.97;688249;28;1317;-81
2023/01/17 03:12:57;;;;;;;2.72;2.53;;;;;;;4.49;66.91;97825.28;685448;28;1041;-80
2023/01/17 03:13:17;;;;;;;2.70;2.50;;;;;;;4.47;67.07;97832.16;688229;28;1282;-81
2023/01/17 03:13:38;;;;;;;2.50;2.30;;;;;;;4.48;66.33;97815.81;688288;28;795;-81
2023/01/17 03:13:59;;;;;;;2.47;2.20;;;;;;;4.44;66.72;97811.47;690845;28;1469;-81
2023/01/17 03:14:22;;;;;;;2.38;2.17;;;;;;;4.49;66.80;97827.88;690941;28;1104;-81
2023/01/17 03:14:43;;;;;;;2.25;2.10;;;;;;;4.44;66.84;97829.56;690877;28;1119;-81
2023/01/17 03:15:09;;;;;;;2.20;2.10;;;;;;;4.36;67.01;97824.38;690752;28;1087;-81
2023/01/17 03:15:30;;;;;;;2.20;2.10;;;;;;;4.25;66.97;97821.72;688284;28;1344;-81
2023/01/17 03:15:51;;;;;;;2.30;2.20;;;;;;;4.24;67.25;97841.50;688096;28;1385;-81
2023/01/17 03:16:23;;;;;;;2.20;2.10;;;;;;;4.19;67.44;97837.13;688346;28;1055;-81
2023/01/17 03:16:44;;;;;;;3.00;2.30;;;;;;;4.28;67.40;97838.94;690783;28;1335;-81
2023/01/17 03:17:10;;;;;;;2.60;2.15;;;;;;;4.13;67.76;97837.97;688159;28;1164;-81
2023/01/17 03:17:31;;;;;;;2.45;2.10;;;;;;;4.10;67.51;97823.31;685581;28;1224;-81
2023/01/17 03:17:55;;;;;;;2.30;2.20;;;;;;;4.00;68.06;97830.97;690952;28;1267;-81
2023/01/17 03:18:16;;;;;;;2.50;2.40;;;;;;;4.18;67.79;97840.56;693590;28;980;-81
2023/01/17 03:18:37;;;;;;;2.75;2.55;;;;;;;4.13;67.45;97837.09;691051;28;1278;-81
2023/01/17 03:18:57;;;;;;;2.70;2.50;;;;;;;4.11;67.64;97837.94;690799;28;1209;-81
2023/01/17 03:19:18;;;;;;;2.67;2.47;;;;;;;3.99;67.80;97824.97;688324;28;1097;-81
2023/01/17 03:19:39;;;;;;;2.30;2.20;;;;;;;4.02;68.15;97830.13;685621;28;801;-80
2023/01/17 03:19:59;;;;;;;2.33;2.22;;;;;;;3.95;67.93;97833.53;685516;28;1103;-81
2023/01/17 03:20:20;;;;;;;2.53;2.33;;;;;;;4.03;68.33;97836.16;688387;28;1156;-80
2023/01/17 03:20:41;;;;;;;2.55;2.35;;;;;;;4.06;67.82;97826.72;688274;28;1902;-81
2023/01/17 03:21:02;;;;;;;3.00;2.50;;;;;;;4.20;67.82;97837.16;685782;28;803;-80
2023/01/17 03:21:24;;;;;;;2.65;2.30;;;;;;;4.15;67.94;97836.25;685595;28;1720;-81
2023/01/17 03:21:54;;;;;;;2.88;2.33;;;;;;;4.08;68.06;97834.47;685510;28;1411;-81
2023/01/17 03:22:14;;;;;;;2.50;2.30;;;;;;;4.06;67.87;97842.19;688144;28;1128;-81
2023/01/17 03:22:35;;;;;;;2.80;2.60;;;;;;;4.17;67.88;97828.53;690991;28;1079;-80
2023/01/17 03:22:56;;;;;;;2.88;2.67;;;;;;;4.22;67.59;97843.22;690841;28;1189;-81
2023/01/17 03:23:17;;;;;;;2.90;2.70;;;;;;;4.27;67.19;97845.81;691020;28;1104;-81
2023/01/17 03:23:37;;;;;;;2.90;2.70;;;;;;;4.24;67.50;97845.81;690962;28;1133;-81
2023/01/17 03:23:58;;;;;;;2.90;2.70;;;;;;;4.21;67.48;97843.16;690851;28;1369;-81
2023/01/17 03:24:19;;;;;;;2.90;2.70;;;;;;;4.17;67.36;97836.25;691000;28;1283;-81
2023/01/17 03:24:40;;;;;;;2.90;2.70;;;;;;;4.22;67.58;97829.41;691087;28;1387;-80
2023/01/17 03:25:01;;;;;;;2.90;2.70;;;;;;;4.15;67.38;97827.63;688132;28;1361;-81
2023/01/17 03:25:21;;;;;;;3.00;2.80;;;;;;;4.12;67.76;97846.56;691054;28;786;-81
2023/01/17 03:25:42;;;;;;;3.17;2.90;;;;;;;4.20;67.74;97855.22;690528;28;1072;-81
2023/01/17 03:26:04;;;;;;;3.60;2.97;;;;;;;4.09;67.53;97837.06;690925;28;1208;-81
2023/01/17 03:26:24;;;;;;;3.88;2.80;;;;;;;4.00;67.75;97844.75;690938;28;1215;-81
2023/01/17 03:26:46;;;;;;;3.70;2.80;;;;;;;4.10;67.47;97833.63;690801;28;1028;-81
2023/01/17 03:27:10;;;;;;;3.03;2.80;;;;;;;4.06;67.91;97842.19;691469;28;1083;-80
2023/01/17 03:27:31;;;;;;;2.90;2.70;;;;;;;4.04;67.69;97832.75;691055;28;1434;-81
2023/01/17 03:27:52;;;;;;;2.97;2.78;;;;;;;4.00;68.19;97831.84;690835;28;1227;-81
2023/01/17 03:28:12;;;;;;;3.00;2.80;;;;;;;4.00;67.82;97834.44;687783;28;1179;-81
2023/01/17 03:28:33;;;;;;;3.10;2.90;;;;;;;4.07;68.01;97833.63;688256;28;1275;-81
2023/01/17 03:28:54;;;;;;;3.00;2.80;;;;;;;4.15;68.02;97831.09;688198;28;1231;-80
2023/01/17 03:29:18;;;;;;;2.95;2.75;;;;;;;4.26;67.67;97844.09;685532;28;1278;-81
2023/01/17 03:29:38;;;;;;;3.20;3.00;;;;;;;4.20;67.81;97836.28;686335;28;820;-81
2023/01/17 03:30:00;;;;;;;3.17;2.97;;;;;;;4.13;67.47;97831.91;685541;28;1075;-81
2023/01/17 03:30:21;;;;;;;2.92;2.72;;;;;;;4.10;67.77;97840.50;690867;28;1436;-81
2023/01/17 03:30:42;;;;;;;2.65;2.55;;;;;;;4.23;67.89;97852.66;688232;28;1358;-81
2023/01/17 03:31:03;;;;;;;2.85;2.65;;;;;;;4.30;67.43;97856.16;688155;28;1485;-81
2023/01/17 03:31:24;;;;;;;3.17;2.90;;;;;;;4.33;67.47;97835.53;688334;28;1447;-81
2023/01/17 03:31:45;;;;;;;3.47;3.17;;;;;;;4.34;67.16;97836.38;688288;28;1030;-80
2023/01/17 03:32:06;;;;;;;3.50;3.20;;;;;;;4.43;67.24;97861.41;685461;28;1128;-81